createdAt,value
2018-09-08T00:00:56.609Z,12.60
2018-09-08T00:03:24.936Z,12.60
2018-09-08T00:05:53.233Z,12.60
2018-09-08T00:08:21.573Z,12.50
2018-09-08T00:10:49.886Z,12.60
2018-09-08T00:13:18.239Z,12.60
2018-09-08T00:15:52.014Z,12.60
2018-09-08T00:18:25.820Z,12.60
2018-09-08T00:20:59.617Z,12.60
2018-09-08T00:23:33.357Z,12.50
2018-09-08T00:26:07.122Z,12.50
2018-09-08T00:28:39.660Z,12.50
2018-09-08T00:31:11.984Z,12.50
2018-09-08T00:33:40.298Z,12.40
2018-09-08T00:36:08.597Z,12.40
2018-09-08T00:38:36.941Z,12.30
2018-09-08T00:41:05.257Z,12.20
2018-09-08T00:43:33.584Z,12.30
2018-09-08T00:46:02.048Z,12.30
2018-09-08T00:48:30.388Z,12.30
2018-09-08T00:50:59.017Z,12.30
2018-09-08T00:53:27.480Z,12.20
2018-09-08T00:55:55.809Z,12.20
2018-09-08T00:58:24.140Z,12.20
2018-09-08T01:00:52.626Z,12.20
2018-09-08T01:03:21.081Z,12.20
2018-09-08T01:05:49.412Z,12.20
2018-09-08T01:08:17.724Z,12.20
2018-09-08T01:10:46.117Z,12.30
2018-09-08T01:13:14.425Z,12.30
2018-09-08T01:15:42.748Z,12.20
2018-09-08T01:18:11.044Z,12.10
2018-09-08T01:20:39.380Z,11.90
2018-09-08T01:23:09.124Z,11.70
2018-09-08T01:25:37.733Z,11.60
2018-09-08T01:28:06.196Z,11.40
2018-09-08T01:30:34.548Z,11.40
2018-09-08T01:33:03.151Z,11.40
2018-09-08T01:35:31.484Z,11.30
2018-09-08T01:37:59.780Z,11.30
2018-09-08T01:40:28.108Z,11.30
2018-09-08T01:42:56.412Z,11.30
2018-09-08T01:45:24.765Z,11.30
2018-09-08T01:47:53.093Z,11.40
2018-09-08T01:50:21.421Z,11.40
2018-09-08T01:52:49.728Z,11.50
2018-09-08T01:55:18.068Z,11.60
2018-09-08T01:57:46.386Z,11.60
2018-09-08T02:00:14.717Z,11.60
2018-09-08T02:02:43.064Z,11.60
2018-09-08T02:05:11.393Z,11.50
2018-09-08T02:07:39.692Z,11.40
2018-09-08T02:10:08.019Z,11.40
2018-09-08T02:12:36.348Z,11.20
2018-09-08T02:15:04.841Z,11.20
2018-09-08T02:17:33.142Z,11.10
2018-09-08T02:20:01.483Z,11.10
2018-09-08T02:22:29.836Z,11.00
2018-09-08T02:24:58.175Z,10.90
2018-09-08T02:27:26.508Z,10.90
2018-09-08T02:29:54.817Z,10.80
2018-09-08T02:32:23.236Z,10.80
2018-09-08T02:34:51.580Z,10.90
2018-09-08T02:37:19.909Z,10.80
2018-09-08T02:39:48.217Z,10.70
2018-09-08T02:42:16.572Z,10.70
2018-09-08T02:44:44.870Z,10.80
2018-09-08T02:47:13.297Z,10.90
2018-09-08T02:49:53.224Z,10.90
2018-09-08T02:52:20.485Z,10.80
2018-09-08T02:54:47.740Z,10.80
2018-09-08T02:57:15.060Z,10.90
2018-09-08T02:59:42.313Z,10.80
2018-09-08T03:02:09.589Z,10.80
2018-09-08T03:04:36.837Z,10.60
2018-09-08T03:07:19.662Z,10.70
2018-09-08T03:09:46.901Z,10.70
2018-09-08T03:12:14.169Z,10.80
2018-09-08T03:14:41.416Z,10.70
2018-09-08T03:17:08.696Z,10.70
2018-09-08T03:19:35.950Z,10.70
2018-09-08T03:22:03.216Z,10.70
2018-09-08T03:24:30.476Z,10.60
2018-09-08T03:26:57.756Z,10.70
2018-09-08T03:29:25.006Z,10.70
2018-09-08T03:31:52.285Z,10.70
2018-09-08T03:34:19.540Z,10.60
2018-09-08T03:36:46.813Z,10.60
2018-09-08T03:39:14.066Z,10.50
2018-09-08T03:41:41.337Z,10.40
2018-09-08T03:44:08.581Z,10.50
2018-09-08T03:46:35.852Z,10.50
2018-09-08T03:49:03.104Z,10.50
2018-09-08T03:51:30.377Z,10.50
2018-09-08T03:53:57.620Z,10.50
2018-09-08T03:56:24.883Z,10.40
2018-09-08T03:58:52.205Z,10.40
2018-09-08T04:01:19.432Z,10.20
2018-09-08T04:03:47.856Z,10.30
2018-09-08T04:06:16.157Z,10.40
2018-09-08T04:08:44.473Z,10.40
2018-09-08T04:11:12.821Z,10.40
2018-09-08T04:13:41.208Z,10.40
2018-09-08T04:16:09.513Z,10.40
2018-09-08T04:18:37.876Z,10.40
2018-09-08T04:21:06.216Z,10.30
2018-09-08T04:23:34.608Z,10.20
2018-09-08T04:26:03.181Z,10.10
2018-09-08T04:28:32.298Z,10.10
2018-09-08T04:31:01.061Z,10.10
2018-09-08T04:33:29.384Z,10.20
2018-09-08T04:35:57.739Z,10.10
2018-09-08T04:38:26.053Z,10.00
2018-09-08T04:40:54.395Z,10.00
2018-09-08T04:43:22.709Z,10.00
2018-09-08T04:45:51.012Z,9.90
2018-09-08T04:48:19.329Z,9.90
2018-09-08T04:50:47.628Z,9.90
2018-09-08T04:53:15.949Z,9.90
2018-09-08T04:55:44.241Z,9.80
2018-09-08T04:58:12.563Z,9.80
2018-09-08T05:00:40.866Z,9.90
2018-09-08T05:03:09.218Z,9.80
2018-09-08T05:05:37.521Z,9.80
2018-09-08T05:08:05.918Z,9.80
2018-09-08T05:10:34.217Z,9.80
2018-09-08T05:13:02.554Z,9.70
2018-09-08T05:15:30.869Z,9.70
2018-09-08T05:17:59.200Z,9.60
2018-09-08T05:20:27.514Z,9.70
2018-09-08T05:22:55.861Z,9.80
2018-09-08T05:25:24.162Z,9.90
2018-09-08T05:27:52.481Z,9.90
2018-09-08T05:30:20.776Z,9.90
2018-09-08T05:32:49.094Z,9.80
2018-09-08T05:35:17.397Z,9.70
2018-09-08T05:37:45.721Z,9.70
2018-09-08T05:40:14.037Z,9.80
2018-09-08T05:42:42.372Z,10.00
2018-09-08T05:45:10.676Z,9.80
2018-09-08T05:47:39.000Z,9.80
2018-09-08T05:50:07.309Z,9.80
2018-09-08T05:52:35.638Z,9.70
2018-09-08T05:55:03.976Z,9.80
2018-09-08T05:57:32.295Z,9.80
2018-09-08T06:00:00.588Z,9.90
2018-09-08T06:02:28.909Z,10.00
2018-09-08T06:04:57.232Z,10.10
2018-09-08T06:07:25.532Z,10.20
2018-09-08T06:09:53.854Z,10.10
2018-09-08T06:12:22.169Z,10.10
2018-09-08T06:14:50.501Z,10.20
2018-09-08T06:17:18.834Z,10.20
2018-09-08T06:19:47.192Z,10.20
2018-09-08T06:22:15.461Z,10.20
2018-09-08T06:24:43.917Z,10.20
2018-09-08T06:27:12.212Z,10.20
2018-09-08T06:29:40.527Z,10.10
2018-09-08T06:32:08.834Z,10.10
2018-09-08T06:34:37.153Z,10.00
2018-09-08T06:37:05.458Z,10.00
2018-09-08T06:39:33.811Z,10.10
2018-09-08T06:42:02.118Z,10.10
2018-09-08T06:44:30.432Z,10.20
2018-09-08T06:46:58.733Z,10.40
2018-09-08T06:49:27.053Z,10.40
2018-09-08T06:51:55.353Z,10.40
2018-09-08T06:54:23.680Z,10.50
2018-09-08T06:56:51.981Z,10.40
2018-09-08T06:59:20.301Z,10.40
2018-09-08T07:01:48.602Z,10.50
2018-09-08T07:04:16.941Z,10.60
2018-09-08T07:06:45.254Z,10.80
2018-09-08T07:09:13.572Z,11.00
2018-09-08T07:11:41.874Z,11.00
2018-09-08T07:14:10.192Z,11.20
2018-09-08T07:16:38.497Z,11.10
2018-09-08T07:19:06.836Z,11.20
2018-09-08T07:21:35.140Z,11.20
2018-09-08T07:24:03.456Z,11.20
2018-09-08T07:26:31.768Z,11.30
2018-09-08T07:29:00.085Z,11.40
2018-09-08T07:31:28.384Z,11.30
2018-09-08T07:33:56.704Z,11.30
2018-09-08T07:36:25.028Z,11.10
2018-09-08T07:38:53.384Z,11.30
2018-09-08T07:41:21.686Z,11.20
2018-09-08T07:43:50.016Z,11.10
2018-09-08T07:46:18.356Z,11.30
2018-09-08T07:48:46.681Z,11.50
2018-09-08T07:51:15.004Z,11.50
2018-09-08T07:53:43.385Z,11.60
2018-09-08T07:56:11.669Z,12.00
2018-09-08T07:58:39.960Z,12.30
2018-09-08T08:01:08.277Z,12.70
2018-09-08T08:03:36.577Z,12.90
2018-09-08T08:06:04.900Z,13.10
2018-09-08T08:08:33.193Z,13.10
2018-09-08T08:11:01.518Z,13.30
2018-09-08T08:13:29.812Z,13.50
2018-09-08T08:15:58.141Z,13.60
2018-09-08T08:18:26.444Z,13.70
2018-09-08T08:20:54.765Z,14.20
2018-09-08T08:23:23.260Z,14.20
2018-09-08T08:25:51.422Z,14.30
2018-09-08T08:28:19.721Z,14.10
2018-09-08T08:30:48.091Z,14.10
2018-09-08T08:33:16.397Z,14.30
2018-09-08T08:35:44.717Z,14.50
2018-09-08T08:38:13.014Z,14.60
2018-09-08T08:40:41.336Z,14.80
2018-09-08T08:43:09.652Z,14.90
2018-09-08T08:45:37.941Z,14.90
2018-09-08T08:48:06.248Z,15.10
2018-09-08T08:50:46.083Z,15.30
2018-09-08T08:53:25.737Z,15.50
2018-09-08T08:55:54.115Z,15.40
2018-09-08T08:58:22.405Z,15.60
2018-09-08T09:00:50.776Z,15.80
2018-09-08T09:03:19.073Z,16.00
2018-09-08T09:05:47.394Z,16.20
2018-09-08T09:08:16.084Z,16.10
2018-09-08T09:10:44.048Z,16.00
2018-09-08T09:13:12.372Z,16.30
2018-09-08T09:15:40.713Z,16.70
2018-09-08T09:18:09.077Z,17.00
2018-09-08T09:20:48.667Z,16.90
2018-09-08T09:23:31.049Z,17.00
2018-09-08T09:25:59.373Z,17.00
2018-09-08T09:28:27.672Z,17.20
2018-09-08T09:30:55.988Z,17.10
2018-09-08T09:33:24.288Z,17.20
2018-09-08T09:35:52.621Z,17.20
2018-09-08T09:38:20.919Z,17.20
2018-09-08T09:40:49.261Z,17.40
2018-09-08T09:43:17.556Z,17.50
2018-09-08T09:45:45.888Z,17.50
2018-09-08T09:48:14.198Z,17.80
2018-09-08T09:50:42.549Z,17.70
2018-09-08T09:53:10.977Z,17.90
2018-09-08T09:55:39.209Z,17.80
2018-09-08T09:58:07.520Z,17.70
2018-09-08T10:00:41.219Z,17.70
2018-09-08T10:03:09.520Z,18.00
2018-09-08T10:05:37.832Z,18.30
2018-09-08T10:08:06.166Z,18.20
2018-09-08T10:10:34.473Z,18.30
2018-09-08T10:13:02.785Z,18.40
2018-09-08T10:15:31.076Z,18.40
2018-09-08T10:17:59.397Z,18.40
2018-09-08T10:20:27.688Z,18.60
2018-09-08T10:22:56.049Z,18.70
2018-09-08T10:25:24.385Z,18.70
2018-09-08T10:27:52.711Z,18.80
2018-09-08T10:30:21.089Z,18.90
2018-09-08T10:32:49.387Z,18.60
2018-09-08T10:35:17.688Z,18.70
2018-09-08T10:37:46.004Z,18.70
2018-09-08T10:40:14.398Z,18.80
2018-09-08T10:42:43.068Z,18.80
2018-09-08T10:45:11.837Z,18.90
2018-09-08T10:47:40.158Z,19.10
2018-09-08T10:50:09.708Z,19.10
2018-09-08T10:52:42.761Z,19.20
2018-09-08T10:55:11.093Z,19.30
2018-09-08T10:57:39.434Z,19.40
2018-09-08T11:00:08.449Z,19.40
2018-09-08T11:02:37.059Z,19.60
2018-09-08T11:05:05.162Z,19.60
2018-09-08T11:07:33.532Z,19.50
2018-09-08T11:10:01.850Z,19.50
2018-09-08T11:12:30.663Z,19.60
2018-09-08T11:14:58.982Z,19.70
2018-09-08T11:17:27.296Z,20.00
2018-09-08T11:19:55.597Z,20.30
2018-09-08T11:22:23.972Z,21.00
2018-09-08T11:24:52.272Z,21.40
2018-09-08T11:27:20.611Z,21.40
2018-09-08T11:29:48.906Z,22.10
2018-09-08T11:32:17.441Z,22.40
2018-09-08T11:34:45.740Z,22.60
2018-09-08T11:37:14.399Z,23.40
2018-09-08T11:39:42.738Z,24.00
2018-09-08T11:42:11.033Z,24.60
2018-09-08T11:44:39.448Z,24.80
2018-09-08T11:47:07.697Z,24.50
2018-09-08T11:49:36.085Z,25.20
2018-09-08T11:52:04.320Z,26.00
2018-09-08T11:54:32.753Z,26.40
2018-09-08T11:57:01.069Z,26.80
2018-09-08T11:59:29.457Z,26.10
2018-09-08T12:01:57.754Z,26.30
2018-09-08T12:04:26.081Z,26.50
2018-09-08T12:06:54.377Z,26.80
2018-09-08T12:09:22.736Z,26.60
2018-09-08T12:11:51.017Z,26.80
2018-09-08T12:14:19.341Z,26.40
2018-09-08T12:16:47.645Z,26.70
2018-09-08T12:19:16.109Z,26.80
2018-09-08T12:21:44.336Z,27.10
2018-09-08T12:24:12.657Z,26.80
2018-09-08T12:26:40.968Z,26.70
2018-09-08T12:29:09.292Z,27.10
2018-09-08T12:31:37.722Z,26.80
2018-09-08T12:34:06.081Z,27.00
2018-09-08T12:36:34.400Z,27.00
2018-09-08T12:39:02.845Z,26.80
2018-09-08T12:41:31.145Z,26.60
2018-09-08T12:43:59.497Z,26.10
2018-09-08T12:46:27.788Z,26.70
2018-09-08T12:48:56.118Z,26.70
2018-09-08T12:51:24.433Z,26.90
2018-09-08T12:53:52.757Z,26.90
2018-09-08T12:56:21.072Z,27.20
2018-09-08T12:58:49.562Z,26.90
2018-09-08T13:01:17.860Z,27.30
2018-09-08T13:03:46.325Z,26.40
2018-09-08T13:06:14.653Z,27.10
2018-09-08T13:08:42.985Z,27.10
2018-09-08T13:11:11.281Z,26.40
2018-09-08T13:13:39.600Z,26.30
2018-09-08T13:16:07.893Z,26.00
2018-09-08T13:18:36.216Z,26.20
2018-09-08T13:21:05.450Z,26.50
2018-09-08T13:23:33.744Z,25.90
2018-09-08T13:26:02.075Z,25.40
2018-09-08T13:28:30.384Z,25.00
2018-09-08T13:30:58.792Z,24.00
2018-09-08T13:33:27.064Z,23.30
2018-09-08T13:35:55.388Z,22.70
2018-09-08T13:38:23.696Z,22.30
2018-09-08T13:40:52.009Z,21.90
2018-09-08T13:43:20.296Z,21.80
2018-09-08T13:45:48.625Z,21.80
2018-09-08T13:48:16.928Z,21.50
2018-09-08T13:50:45.241Z,21.30
2018-09-08T13:53:13.536Z,21.20
2018-09-08T13:55:41.887Z,21.20
2018-09-08T13:58:10.202Z,21.30
2018-09-08T14:00:38.649Z,21.40
2018-09-08T14:03:07.116Z,21.40
2018-09-08T14:05:35.437Z,21.30
2018-09-08T14:08:06.730Z,21.20
2018-09-08T14:10:35.044Z,21.20
2018-09-08T14:13:03.365Z,21.30
2018-09-08T14:15:31.696Z,21.30
2018-09-08T14:18:00.001Z,21.20
2018-09-08T14:20:28.325Z,21.10
2018-09-08T14:22:56.619Z,21.10
2018-09-08T14:25:24.949Z,21.10
2018-09-08T14:27:53.252Z,21.10
2018-09-08T14:30:21.588Z,21.00
2018-09-08T14:32:49.928Z,20.80
2018-09-08T14:35:18.242Z,20.80
2018-09-08T14:37:46.552Z,20.70
2018-09-08T14:40:15.060Z,20.90
2018-09-08T14:42:43.353Z,20.90
2018-09-08T14:45:11.677Z,20.80
2018-09-08T14:47:40.084Z,20.80
2018-09-08T14:50:08.501Z,20.80
2018-09-08T14:52:36.793Z,20.90
2018-09-08T14:55:05.357Z,20.80
2018-09-08T14:57:33.649Z,20.90
2018-09-08T15:00:01.970Z,20.80
2018-09-08T15:02:30.273Z,20.60
2018-09-08T15:04:58.615Z,20.60
2018-09-08T15:07:26.901Z,20.60
2018-09-08T15:09:55.216Z,20.60
2018-09-08T15:12:23.512Z,20.70
2018-09-08T15:14:51.803Z,20.60
2018-09-08T15:17:20.121Z,20.70
2018-09-08T15:19:48.409Z,20.70
2018-09-08T15:22:16.760Z,20.60
2018-09-08T15:24:45.061Z,20.50
2018-09-08T15:27:13.369Z,20.40
2018-09-08T15:29:41.661Z,20.30
2018-09-08T15:32:09.976Z,20.30
2018-09-08T15:34:38.271Z,20.30
2018-09-08T15:37:06.582Z,20.30
2018-09-08T15:39:34.880Z,20.20
2018-09-08T15:42:03.476Z,20.20
2018-09-08T15:44:31.777Z,20.10
2018-09-08T15:47:00.097Z,20.10
2018-09-08T15:49:28.401Z,20.30
2018-09-08T15:51:56.719Z,20.30
2018-09-08T15:54:25.012Z,20.30
2018-09-08T15:56:53.374Z,20.20
2018-09-08T15:59:21.664Z,19.90
2018-09-08T16:01:49.984Z,19.80
2018-09-08T16:04:18.300Z,19.80
2018-09-08T16:06:46.627Z,19.80
2018-09-08T16:09:14.917Z,19.80
2018-09-08T16:11:43.228Z,19.80
2018-09-08T16:14:11.754Z,20.00
2018-09-08T16:16:40.069Z,19.90
2018-09-08T16:19:08.384Z,19.80
2018-09-08T16:21:36.813Z,19.70
2018-09-08T16:24:05.292Z,19.50
2018-09-08T16:26:33.608Z,19.30
2018-09-08T16:29:01.901Z,19.20
2018-09-08T16:31:30.212Z,19.20
2018-09-08T16:33:58.507Z,19.10
2018-09-08T16:36:26.828Z,19.20
2018-09-08T16:38:55.157Z,19.20
2018-09-08T16:41:23.472Z,19.10
2018-09-08T16:43:51.769Z,19.00
2018-09-08T16:46:20.082Z,18.90
2018-09-08T16:48:48.379Z,19.20
2018-09-08T16:51:16.698Z,19.20
2018-09-08T16:53:44.993Z,19.10
2018-09-08T16:56:13.328Z,19.10
2018-09-08T16:58:41.620Z,19.10
2018-09-08T17:01:09.937Z,19.00
2018-09-08T17:03:38.232Z,18.90
2018-09-08T17:06:06.221Z,18.90
2018-09-08T17:08:34.516Z,19.00
2018-09-08T17:11:02.821Z,18.80
2018-09-08T17:13:31.165Z,18.70
2018-09-08T17:15:59.465Z,18.60
2018-09-08T17:18:27.781Z,18.50
2018-09-08T17:20:56.076Z,18.30
2018-09-08T17:23:24.383Z,18.00
2018-09-08T17:25:52.681Z,17.80
2018-09-08T17:28:21.066Z,17.70
2018-09-08T17:30:49.346Z,17.50
2018-09-08T17:33:17.656Z,17.40
2018-09-08T17:35:45.957Z,17.30
2018-09-08T17:38:14.283Z,17.10
2018-09-08T17:40:42.586Z,17.00
2018-09-08T17:43:10.912Z,16.80
2018-09-08T17:45:39.209Z,16.70
2018-09-08T17:48:07.897Z,16.60
2018-09-08T17:50:36.213Z,16.40
2018-09-08T17:53:04.534Z,16.30
2018-09-08T17:55:32.850Z,16.20
2018-09-08T17:58:01.167Z,16.10
2018-09-08T18:00:29.527Z,16.00
2018-09-08T18:02:57.856Z,16.00
2018-09-08T18:05:26.157Z,15.90
2018-09-08T18:07:54.480Z,15.80
2018-09-08T18:10:22.777Z,15.80
2018-09-08T18:12:51.093Z,15.60
2018-09-08T18:15:19.388Z,15.60
2018-09-08T18:17:47.705Z,15.50
2018-09-08T18:20:16.005Z,15.50
2018-09-08T18:22:44.321Z,15.40
2018-09-08T18:25:12.617Z,15.40
2018-09-08T18:27:40.940Z,15.30
2018-09-08T18:30:09.269Z,15.30
2018-09-08T18:32:37.590Z,15.30
2018-09-08T18:35:06.448Z,15.20
2018-09-08T18:37:34.809Z,15.10
2018-09-08T18:40:03.117Z,15.00
2018-09-08T18:42:31.448Z,14.90
2018-09-08T18:44:59.762Z,14.90
2018-09-08T18:47:28.097Z,15.00
2018-09-08T18:49:56.409Z,15.10
2018-09-08T18:52:24.710Z,15.10
2018-09-08T18:54:53.036Z,15.20
2018-09-08T18:57:21.353Z,15.20
2018-09-08T18:59:49.671Z,15.20
2018-09-08T19:02:17.967Z,15.20
2018-09-08T19:04:46.288Z,15.00
2018-09-08T19:07:14.593Z,14.80
2018-09-08T19:09:42.933Z,14.60
2018-09-08T19:12:11.220Z,14.50
2018-09-08T19:14:44.808Z,14.40
2018-09-08T19:17:13.106Z,14.30
2018-09-08T19:19:41.416Z,14.30
2018-09-08T19:22:09.709Z,14.30
2018-09-08T19:24:43.181Z,14.40
2018-09-08T19:27:11.845Z,14.50
2018-09-08T19:29:45.541Z,14.40
2018-09-08T19:32:13.832Z,14.20
2018-09-08T19:34:42.149Z,14.30
2018-09-08T19:37:10.451Z,14.30
2018-09-08T19:39:38.772Z,14.10
2018-09-08T19:42:07.074Z,14.10
2018-09-08T19:44:35.389Z,14.00
2018-09-08T19:47:09.172Z,13.90
2018-09-08T19:49:37.497Z,13.90
2018-09-08T19:52:09.655Z,13.80
2018-09-08T19:54:37.969Z,13.70
2018-09-08T19:57:11.625Z,13.60
2018-09-08T19:59:39.944Z,13.50
2018-09-08T20:05:11.106Z,13.30
2018-09-08T20:07:39.414Z,13.20
2018-09-08T20:10:07.770Z,13.20
2018-09-08T20:12:36.085Z,13.30
2018-09-08T20:15:04.642Z,13.40
2018-09-08T20:17:32.941Z,13.50
2018-09-08T20:20:01.278Z,13.50
2018-09-08T20:22:30.618Z,13.30
2018-09-08T20:24:58.960Z,13.20
2018-09-08T20:27:27.278Z,13.30
2018-09-08T20:29:55.602Z,13.30
2018-09-08T20:32:23.909Z,13.30
2018-09-08T20:34:52.229Z,13.00
2018-09-08T20:37:20.541Z,12.90
2018-09-08T20:39:48.884Z,12.90
2018-09-08T20:42:17.205Z,13.00
2018-09-08T20:44:45.542Z,13.00
2018-09-08T20:47:13.873Z,12.80
2018-09-08T20:49:42.214Z,12.60
2018-09-08T20:52:10.518Z,12.50
2018-09-08T20:54:38.849Z,12.30
2018-09-08T20:57:07.254Z,12.20
2018-09-08T20:59:35.583Z,12.20
2018-09-08T21:02:03.930Z,12.10
2018-09-08T21:04:32.255Z,12.10
2018-09-08T21:07:00.581Z,12.00
2018-09-08T21:09:28.902Z,12.00
2018-09-08T21:11:57.214Z,12.00
2018-09-08T21:14:25.546Z,12.00
2018-09-08T21:16:53.893Z,12.10
2018-09-08T21:19:22.226Z,12.30
2018-09-08T21:21:50.554Z,12.30
2018-09-08T21:24:18.854Z,12.30
2018-09-08T21:26:47.181Z,12.30
2018-09-08T21:29:15.494Z,12.20
2018-09-08T21:31:43.817Z,12.30
2018-09-08T21:34:12.118Z,12.30
2018-09-08T21:36:40.437Z,12.30
2018-09-08T21:39:09.574Z,12.30
2018-09-08T21:41:37.980Z,12.30
2018-09-08T21:44:06.450Z,12.30
2018-09-08T21:46:34.936Z,12.10
2018-09-08T21:49:03.271Z,12.00
2018-09-08T21:51:31.607Z,12.00
2018-09-08T21:53:59.913Z,11.80
2018-09-08T21:56:28.249Z,11.80
2018-09-08T21:58:56.550Z,11.90
2018-09-08T22:01:25.514Z,11.90
2018-09-08T22:03:54.514Z,11.70
2018-09-08T22:06:23.595Z,11.70
2018-09-08T22:08:52.070Z,11.60
2018-09-08T22:11:20.567Z,11.60
2018-09-08T22:13:48.889Z,11.50
2018-09-08T22:16:17.518Z,11.50
2018-09-08T22:18:45.895Z,11.70
2018-09-08T22:21:14.231Z,11.80
2018-09-08T22:23:42.537Z,11.90
2018-09-08T22:26:10.870Z,11.90
2018-09-08T22:28:39.184Z,11.90
2018-09-08T22:31:07.519Z,12.00
2018-09-08T22:33:35.855Z,12.00
2018-09-08T22:36:04.183Z,12.00
2018-09-08T22:38:32.503Z,12.00
2018-09-08T22:41:00.829Z,12.00
2018-09-08T22:43:29.153Z,12.10
2018-09-08T22:45:57.509Z,12.10
2018-09-08T22:48:25.866Z,12.00
2018-09-08T22:50:54.175Z,12.00
2018-09-08T22:53:22.499Z,12.00
2018-09-08T22:55:50.811Z,11.70
2018-09-08T22:58:19.141Z,11.50
2018-09-08T23:00:47.454Z,11.30
2018-09-08T23:03:15.782Z,11.20
2018-09-08T23:05:44.088Z,11.20
2018-09-08T23:08:12.426Z,11.30
2018-09-08T23:10:40.746Z,11.50
2018-09-08T23:13:09.075Z,11.70
2018-09-08T23:15:37.395Z,11.60
2018-09-08T23:18:05.662Z,11.40
2018-09-08T23:20:33.974Z,11.40
2018-09-08T23:23:02.310Z,11.40
2018-09-08T23:25:30.622Z,11.30
2018-09-08T23:27:58.950Z,11.40
2018-09-08T23:30:27.260Z,11.60
2018-09-08T23:32:55.594Z,11.60
2018-09-08T23:35:23.908Z,11.50
2018-09-08T23:37:52.249Z,11.40
2018-09-08T23:40:20.596Z,11.40
2018-09-08T23:42:48.922Z,11.60
2018-09-08T23:45:17.235Z,11.50
2018-09-08T23:47:46.193Z,11.30
2018-09-08T23:50:14.521Z,11.30
2018-09-08T23:52:42.873Z,11.40
2018-09-08T23:55:11.613Z,11.50
2018-09-08T23:57:39.946Z,11.60
